« Back
NWS Peachtree City, Ga » Text Product » AHN Terminal Aerodrome Forecast


Printer-friendly Version
Current Version              Previous Versions:   1  2  3  4  5  6  7  8  9  

Terminal Aerodrome Forecast

409
FTUS42 KFFC 031130
TAFAHN
TAF
KAHN 031130Z 0312/0412 06003KT 6SM BR SCT250
     FM031300 12003KT P6SM FEW015 FEW250
     FM031800 07004KT P6SM FEW040
     FM040000 00000KT P6SM FEW080=

USA.gov is the U.S. government's official web portal to all federal, state and local government web resources and services.